sensor_id;sensor_type;location;lat;lon;timestamp;temperature;humidity
2497;DHT22;1259;48.306;14.374;2022-11-21T00:00:59;3.90;99.90
2497;DHT22;1259;48.306;14.374;2022-11-21T00:03:26;4.00;99.90
2497;DHT22;1259;48.306;14.374;2022-11-21T00:05:53;4.00;99.90
2497;DHT22;1259;48.306;14.374;2022-11-21T00:08:20;4.00;99.90
2497;DHT22;1259;48.306;14.374;2022-11-21T00:10:49;4.00;99.90
2497;DHT22;1259;48.306;14.374;2022-11-21T00:13:19;4.00;99.90
2497;DHT22;1259;48.306;14.374;2022-11-21T00:15:46;4.00;99.90
2497;DHT22;1259;48.306;14.374;2022-11-21T00:18:13;3.90;99.90
2497;DHT22;1259;48.306;14.374;2022-11-21T00:20:41;3.90;99.90
2497;DHT22;1259;48.306;14.374;2022-11-21T00:23:08;3.90;99.90
2497;DHT22;1259;48.306;14.374;2022-11-21T00:25:36;3.90;99.90
2497;DHT22;1259;48.306;14.374;2022-11-21T00:28:05;4.00;99.90
2497;DHT22;1259;48.306;14.374;2022-11-21T00:30:31;4.00;99.90
2497;DHT22;1259;48.306;14.374;2022-11-21T00:32:58;4.00;99.90
2497;DHT22;1259;48.306;14.374;2022-11-21T00:35:26;4.00;99.90
2497;DHT22;1259;48.306;14.374;2022-11-21T00:37:53;4.00;99.90
2497;DHT22;1259;48.306;14.374;2022-11-21T00:40:19;4.10;99.90
2497;DHT22;1259;48.306;14.374;2022-11-21T00:42:46;4.00;99.90
2497;DHT22;1259;48.306;14.374;2022-11-21T00:45:15;3.90;99.90
2497;DHT22;1259;48.306;14.374;2022-11-21T00:47:42;3.80;99.90
2497;DHT22;1259;48.306;14.374;2022-11-21T00:50:09;3.90;99.90
2497;DHT22;1259;48.306;14.374;2022-11-21T00:52:36;3.90;99.90
2497;DHT22;1259;48.306;14.374;2022-11-21T00:55:03;3.80;99.90
2497;DHT22;1259;48.306;14.374;2022-11-21T00:57:30;3.80;99.90
2497;DHT22;1259;48.306;14.374;2022-11-21T00:59:57;3.90;99.90
2497;DHT22;1259;48.306;14.374;2022-11-21T01:02:25;3.90;99.90
2497;DHT22;1259;48.306;14.374;2022-11-21T01:04:52;3.90;99.90
2497;DHT22;1259;48.306;14.374;2022-11-21T01:07:19;3.80;99.90
2497;DHT22;1259;48.306;14.374;2022-11-21T01:09:46;3.90;99.90
2497;DHT22;1259;48.306;14.374;2022-11-21T01:12:13;3.90;99.90
2497;DHT22;1259;48.306;14.374;2022-11-21T01:14:40;3.80;99.90
2497;DHT22;1259;48.306;14.374;2022-11-21T01:17:07;3.90;99.90
2497;DHT22;1259;48.306;14.374;2022-11-21T01:19:35;3.80;99.90
2497;DHT22;1259;48.306;14.374;2022-11-21T01:22:02;3.80;99.90
2497;DHT22;1259;48.306;14.374;2022-11-21T01:24:29;3.70;99.90
2497;DHT22;1259;48.306;14.374;2022-11-21T01:26:56;3.70;99.90
2497;DHT22;1259;48.306;14.374;2022-11-21T01:29:23;3.70;99.90
2497;DHT22;1259;48.306;14.374;2022-11-21T01:31:50;3.70;99.90
2497;DHT22;1259;48.306;14.374;2022-11-21T01:34:17;3.70;99.90
2497;DHT22;1259;48.306;14.374;2022-11-21T01:36:45;3.60;99.90
2497;DHT22;1259;48.306;14.374;2022-11-21T01:39:12;3.60;99.90
2497;DHT22;1259;48.306;14.374;2022-11-21T01:41:41;3.50;99.90
2497;DHT22;1259;48.306;14.374;2022-11-21T01:44:14;3.50;99.90
2497;DHT22;1259;48.306;14.374;2022-11-21T01:46:42;3.40;99.90
2497;DHT22;1259;48.306;14.374;2022-11-21T01:49:11;3.50;99.90
2497;DHT22;1259;48.306;14.374;2022-11-21T01:51:43;3.40;99.90
2497;DHT22;1259;48.306;14.374;2022-11-21T01:54:15;3.40;99.90
2497;DHT22;1259;48.306;14.374;2022-11-21T01:56:47;3.40;99.90
2497;DHT22;1259;48.306;14.374;2022-11-21T01:59:18;3.40;99.90
2497;DHT22;1259;48.306;14.374;2022-11-21T02:01:49;3.30;99.90
2497;DHT22;1259;48.306;14.374;2022-11-21T02:04:18;3.30;99.90
2497;DHT22;1259;48.306;14.374;2022-11-21T02:06:45;3.30;99.90
2497;DHT22;1259;48.306;14.374;2022-11-21T02:09:13;3.30;99.90
2497;DHT22;1259;48.306;14.374;2022-11-21T02:11:43;3.30;99.90
2497;DHT22;1259;48.306;14.374;2022-11-21T02:14:11;3.20;99.90
2497;DHT22;1259;48.306;14.374;2022-11-21T02:16:39;3.20;99.90
2497;DHT22;1259;48.306;14.374;2022-11-21T02:19:08;3.20;99.90
2497;DHT22;1259;48.306;14.374;2022-11-21T02:21:43;3.20;99.90
2497;DHT22;1259;48.306;14.374;2022-11-21T02:24:19;3.20;99.90
2497;DHT22;1259;48.306;14.374;2022-11-21T02:26:49;3.30;99.90
2497;DHT22;1259;48.306;14.374;2022-11-21T02:29:16;3.30;99.90
2497;DHT22;1259;48.306;14.374;2022-11-21T02:31:43;3.30;99.90
2497;DHT22;1259;48.306;14.374;2022-11-21T02:34:10;3.30;99.90
2497;DHT22;1259;48.306;14.374;2022-11-21T02:36:42;3.40;99.90
2497;DHT22;1259;48.306;14.374;2022-11-21T02:39:13;3.30;99.90
2497;DHT22;1259;48.306;14.374;2022-11-21T02:41:47;3.40;99.90
2497;DHT22;1259;48.306;14.374;2022-11-21T02:44:23;3.40;99.90
2497;DHT22;1259;48.306;14.374;2022-11-21T02:46:51;3.40;99.90
2497;DHT22;1259;48.306;14.374;2022-11-21T02:49:27;3.40;99.90
2497;DHT22;1259;48.306;14.374;2022-11-21T02:51:56;3.40;99.90
2497;DHT22;1259;48.306;14.374;2022-11-21T02:54:22;3.30;99.90
2497;DHT22;1259;48.306;14.374;2022-11-21T02:56:49;3.30;99.90
2497;DHT22;1259;48.306;14.374;2022-11-21T02:59:16;3.30;99.90
2497;DHT22;1259;48.306;14.374;2022-11-21T03:01:44;3.30;99.90
2497;DHT22;1259;48.306;14.374;2022-11-21T03:04:11;3.30;99.90
2497;DHT22;1259;48.306;14.374;2022-11-21T03:06:38;3.30;99.90
2497;DHT22;1259;48.306;14.374;2022-11-21T03:09:05;3.40;99.90
2497;DHT22;1259;48.306;14.374;2022-11-21T03:11:32;3.40;99.90
2497;DHT22;1259;48.306;14.374;2022-11-21T03:13:59;3.40;99.90
2497;DHT22;1259;48.306;14.374;2022-11-21T03:16:26;3.40;99.90
2497;DHT22;1259;48.306;14.374;2022-11-21T03:18:55;3.40;99.90
2497;DHT22;1259;48.306;14.374;2022-11-21T03:21:22;3.40;99.90
2497;DHT22;1259;48.306;14.374;2022-11-21T03:23:49;3.40;99.90
2497;DHT22;1259;48.306;14.374;2022-11-21T03:26:16;3.50;99.90
2497;DHT22;1259;48.306;14.374;2022-11-21T03:28:43;3.40;99.90
2497;DHT22;1259;48.306;14.374;2022-11-21T03:31:10;3.40;99.90
2497;DHT22;1259;48.306;14.374;2022-11-21T03:33:36;3.40;99.90
2497;DHT22;1259;48.306;14.374;2022-11-21T03:36:05;3.40;99.90
2497;DHT22;1259;48.306;14.374;2022-11-21T03:38:32;3.40;99.90
2497;DHT22;1259;48.306;14.374;2022-11-21T03:41:02;3.40;99.90
2497;DHT22;1259;48.306;14.374;2022-11-21T03:43:29;3.40;99.90
2497;DHT22;1259;48.306;14.374;2022-11-21T03:45:56;3.40;99.90
2497;DHT22;1259;48.306;14.374;2022-11-21T03:48:23;3.40;99.90
2497;DHT22;1259;48.306;14.374;2022-11-21T03:50:50;3.40;99.90
2497;DHT22;1259;48.306;14.374;2022-11-21T03:53:18;3.40;99.90
2497;DHT22;1259;48.306;14.374;2022-11-21T03:55:45;3.40;99.90
2497;DHT22;1259;48.306;14.374;2022-11-21T03:58:12;3.50;99.90
2497;DHT22;1259;48.306;14.374;2022-11-21T04:00:39;3.50;99.90
2497;DHT22;1259;48.306;14.374;2022-11-21T04:03:06;3.60;99.90
2497;DHT22;1259;48.306;14.374;2022-11-21T04:05:33;3.60;99.90
2497;DHT22;1259;48.306;14.374;2022-11-21T04:07:59;3.40;99.90
2497;DHT22;1259;48.306;14.374;2022-11-21T04:10:28;3.50;99.90
2497;DHT22;1259;48.306;14.374;2022-11-21T04:12:54;3.50;99.90
2497;DHT22;1259;48.306;14.374;2022-11-21T04:15:21;3.50;99.90
2497;DHT22;1259;48.306;14.374;2022-11-21T04:17:48;3.50;99.90
2497;DHT22;1259;48.306;14.374;2022-11-21T04:20:15;3.50;99.90
2497;DHT22;1259;48.306;14.374;2022-11-21T04:22:42;3.40;99.90
2497;DHT22;1259;48.306;14.374;2022-11-21T04:25:09;3.40;99.90
2497;DHT22;1259;48.306;14.374;2022-11-21T04:27:39;3.40;99.90
2497;DHT22;1259;48.306;14.374;2022-11-21T04:30:07;3.40;99.90
2497;DHT22;1259;48.306;14.374;2022-11-21T04:32:34;3.50;99.90
2497;DHT22;1259;48.306;14.374;2022-11-21T04:35:01;3.50;99.90
2497;DHT22;1259;48.306;14.374;2022-11-21T04:37:28;3.50;99.90
2497;DHT22;1259;48.306;14.374;2022-11-21T04:39:54;3.50;99.90
2497;DHT22;1259;48.306;14.374;2022-11-21T04:42:22;3.60;99.90
2497;DHT22;1259;48.306;14.374;2022-11-21T04:44:50;3.60;99.90
2497;DHT22;1259;48.306;14.374;2022-11-21T04:47:17;3.60;99.90
2497;DHT22;1259;48.306;14.374;2022-11-21T04:49:44;3.60;99.90
2497;DHT22;1259;48.306;14.374;2022-11-21T04:52:11;3.60;99.90
2497;DHT22;1259;48.306;14.374;2022-11-21T04:54:38;3.60;99.90
2497;DHT22;1259;48.306;14.374;2022-11-21T04:57:05;3.60;99.90
2497;DHT22;1259;48.306;14.374;2022-11-21T04:59:31;3.60;99.90
2497;DHT22;1259;48.306;14.374;2022-11-21T05:02:01;3.60;99.90
2497;DHT22;1259;48.306;14.374;2022-11-21T05:04:28;3.60;99.90
2497;DHT22;1259;48.306;14.374;2022-11-21T05:06:55;3.60;99.90
2497;DHT22;1259;48.306;14.374;2022-11-21T05:09:22;3.50;99.90
2497;DHT22;1259;48.306;14.374;2022-11-21T05:11:49;3.50;99.90
2497;DHT22;1259;48.306;14.374;2022-11-21T05:14:33;3.60;99.90
2497;DHT22;1259;48.306;14.374;2022-11-21T05:17:01;3.70;99.90
2497;DHT22;1259;48.306;14.374;2022-11-21T05:19:28;3.70;99.90
2497;DHT22;1259;48.306;14.374;2022-11-21T05:21:55;3.70;99.90
2497;DHT22;1259;48.306;14.374;2022-11-21T05:24:22;3.70;99.90
2497;DHT22;1259;48.306;14.374;2022-11-21T05:26:49;3.80;99.90
2497;DHT22;1259;48.306;14.374;2022-11-21T05:29:16;3.80;99.90
2497;DHT22;1259;48.306;14.374;2022-11-21T05:31:43;3.80;99.90
2497;DHT22;1259;48.306;14.374;2022-11-21T05:34:11;3.70;99.90
2497;DHT22;1259;48.306;14.374;2022-11-21T05:36:38;3.80;99.90
2497;DHT22;1259;48.306;14.374;2022-11-21T05:39:05;3.70;99.90
2497;DHT22;1259;48.306;14.374;2022-11-21T05:41:32;3.80;99.90
2497;DHT22;1259;48.306;14.374;2022-11-21T05:43:59;3.80;99.90
2497;DHT22;1259;48.306;14.374;2022-11-21T05:46:25;3.80;99.90
2497;DHT22;1259;48.306;14.374;2022-11-21T05:48:53;3.70;99.90
2497;DHT22;1259;48.306;14.374;2022-11-21T05:51:21;3.80;99.90
2497;DHT22;1259;48.306;14.374;2022-11-21T05:53:48;3.80;99.90
2497;DHT22;1259;48.306;14.374;2022-11-21T05:56:18;3.80;99.90
2497;DHT22;1259;48.306;14.374;2022-11-21T05:58:45;3.80;99.90
2497;DHT22;1259;48.306;14.374;2022-11-21T06:01:13;3.80;99.90
2497;DHT22;1259;48.306;14.374;2022-11-21T06:03:41;3.80;99.90
2497;DHT22;1259;48.306;14.374;2022-11-21T06:06:08;3.80;99.90
2497;DHT22;1259;48.306;14.374;2022-11-21T06:08:38;3.80;99.90
2497;DHT22;1259;48.306;14.374;2022-11-21T06:11:06;3.80;99.90
2497;DHT22;1259;48.306;14.374;2022-11-21T06:13:34;3.80;99.90
2497;DHT22;1259;48.306;14.374;2022-11-21T06:16:03;3.80;99.90
2497;DHT22;1259;48.306;14.374;2022-11-21T06:18:32;3.80;99.90
2497;DHT22;1259;48.306;14.374;2022-11-21T06:21:00;3.80;99.90
2497;DHT22;1259;48.306;14.374;2022-11-21T06:23:27;3.80;99.90
2497;DHT22;1259;48.306;14.374;2022-11-21T06:26:01;3.90;99.90
2497;DHT22;1259;48.306;14.374;2022-11-21T06:28:30;3.90;99.90
2497;DHT22;1259;48.306;14.374;2022-11-21T06:31:01;3.80;99.90
2497;DHT22;1259;48.306;14.374;2022-11-21T06:33:28;3.80;99.90
2497;DHT22;1259;48.306;14.374;2022-11-21T06:35:55;3.80;99.90
2497;DHT22;1259;48.306;14.374;2022-11-21T06:38:22;3.80;99.90
2497;DHT22;1259;48.306;14.374;2022-11-21T06:40:49;3.80;99.90
2497;DHT22;1259;48.306;14.374;2022-11-21T06:43:17;3.70;99.90
2497;DHT22;1259;48.306;14.374;2022-11-21T06:45:44;3.80;99.90
2497;DHT22;1259;48.306;14.374;2022-11-21T06:48:11;3.70;99.90
2497;DHT22;1259;48.306;14.374;2022-11-21T06:50:38;3.70;99.90
2497;DHT22;1259;48.306;14.374;2022-11-21T06:53:05;3.80;99.90
2497;DHT22;1259;48.306;14.374;2022-11-21T06:55:32;3.70;99.90
2497;DHT22;1259;48.306;14.374;2022-11-21T06:57:59;3.80;99.90
2497;DHT22;1259;48.306;14.374;2022-11-21T07:00:28;3.80;99.90
2497;DHT22;1259;48.306;14.374;2022-11-21T07:03:01;3.90;99.90
2497;DHT22;1259;48.306;14.374;2022-11-21T07:05:29;3.90;99.90
2497;DHT22;1259;48.306;14.374;2022-11-21T07:07:57;3.90;99.90
2497;DHT22;1259;48.306;14.374;2022-11-21T07:10:24;4.00;99.90
2497;DHT22;1259;48.306;14.374;2022-11-21T07:12:51;4.00;99.90
2497;DHT22;1259;48.306;14.374;2022-11-21T07:15:41;4.00;99.90
2497;DHT22;1259;48.306;14.374;2022-11-21T07:18:08;4.00;99.90
2497;DHT22;1259;48.306;14.374;2022-11-21T07:20:35;4.10;99.90
2497;DHT22;1259;48.306;14.374;2022-11-21T07:23:02;4.10;99.90
2497;DHT22;1259;48.306;14.374;2022-11-21T07:25:29;4.10;99.90
2497;DHT22;1259;48.306;14.374;2022-11-21T07:27:57;4.10;99.90
2497;DHT22;1259;48.306;14.374;2022-11-21T07:30:24;4.10;99.90
2497;DHT22;1259;48.306;14.374;2022-11-21T07:32:55;4.10;99.90
2497;DHT22;1259;48.306;14.374;2022-11-21T07:35:22;4.10;99.90
2497;DHT22;1259;48.306;14.374;2022-11-21T07:37:49;4.10;99.90
2497;DHT22;1259;48.306;14.374;2022-11-21T07:40:17;4.10;99.90
2497;DHT22;1259;48.306;14.374;2022-11-21T07:42:44;4.10;99.90
2497;DHT22;1259;48.306;14.374;2022-11-21T07:45:12;4.10;99.90
2497;DHT22;1259;48.306;14.374;2022-11-21T07:47:39;4.20;99.90
2497;DHT22;1259;48.306;14.374;2022-11-21T07:50:09;4.20;99.90
2497;DHT22;1259;48.306;14.374;2022-11-21T07:52:36;4.20;99.90
2497;DHT22;1259;48.306;14.374;2022-11-21T07:55:04;4.20;99.90
2497;DHT22;1259;48.306;14.374;2022-11-21T07:57:31;4.20;99.90
2497;DHT22;1259;48.306;14.374;2022-11-21T07:59:58;4.10;99.90
2497;DHT22;1259;48.306;14.374;2022-11-21T08:02:26;4.20;99.90
2497;DHT22;1259;48.306;14.374;2022-11-21T08:04:54;4.20;99.90
2497;DHT22;1259;48.306;14.374;2022-11-21T08:07:22;4.30;99.90
2497;DHT22;1259;48.306;14.374;2022-11-21T08:09:50;4.20;99.90
2497;DHT22;1259;48.306;14.374;2022-11-21T08:12:17;4.30;99.90
2497;DHT22;1259;48.306;14.374;2022-11-21T08:14:43;4.30;99.90
2497;DHT22;1259;48.306;14.374;2022-11-21T08:17:10;4.30;99.90
2497;DHT22;1259;48.306;14.374;2022-11-21T08:19:38;4.30;99.90
2497;DHT22;1259;48.306;14.374;2022-11-21T08:22:05;4.40;99.90
2497;DHT22;1259;48.306;14.374;2022-11-21T08:24:33;4.50;99.90
2497;DHT22;1259;48.306;14.374;2022-11-21T08:27:00;4.50;99.90
2497;DHT22;1259;48.306;14.374;2022-11-21T08:29:27;4.60;99.90
2497;DHT22;1259;48.306;14.374;2022-11-21T08:31:54;4.60;99.90
2497;DHT22;1259;48.306;14.374;2022-11-21T08:34:21;4.60;99.90
2497;DHT22;1259;48.306;14.374;2022-11-21T08:36:48;4.60;99.90
2497;DHT22;1259;48.306;14.374;2022-11-21T08:39:15;4.60;99.90
2497;DHT22;1259;48.306;14.374;2022-11-21T08:41:43;4.60;99.90
2497;DHT22;1259;48.306;14.374;2022-11-21T08:44:24;4.60;99.90
2497;DHT22;1259;48.306;14.374;2022-11-21T08:46:51;4.60;99.90
2497;DHT22;1259;48.306;14.374;2022-11-21T08:49:18;4.50;99.90
2497;DHT22;1259;48.306;14.374;2022-11-21T08:51:45;4.40;99.90
2497;DHT22;1259;48.306;14.374;2022-11-21T08:54:13;4.30;99.90
2497;DHT22;1259;48.306;14.374;2022-11-21T08:56:40;4.30;99.90
2497;DHT22;1259;48.306;14.374;2022-11-21T08:59:09;4.30;99.90
2497;DHT22;1259;48.306;14.374;2022-11-21T09:01:35;4.20;99.90
2497;DHT22;1259;48.306;14.374;2022-11-21T09:04:03;4.10;99.90
2497;DHT22;1259;48.306;14.374;2022-11-21T09:06:30;4.00;99.90
2497;DHT22;1259;48.306;14.374;2022-11-21T09:08:57;3.90;99.90
2497;DHT22;1259;48.306;14.374;2022-11-21T09:11:24;3.80;99.90
2497;DHT22;1259;48.306;14.374;2022-11-21T09:13:51;3.70;99.90
2497;DHT22;1259;48.306;14.374;2022-11-21T09:16:33;3.70;99.90
2497;DHT22;1259;48.306;14.374;2022-11-21T09:19:29;3.70;99.90
2497;DHT22;1259;48.306;14.374;2022-11-21T09:21:56;3.70;99.90
2497;DHT22;1259;48.306;14.374;2022-11-21T09:24:23;3.70;99.90
2497;DHT22;1259;48.306;14.374;2022-11-21T09:26:50;3.80;99.90
2497;DHT22;1259;48.306;14.374;2022-11-21T09:29:17;3.80;99.90
2497;DHT22;1259;48.306;14.374;2022-11-21T09:31:45;3.80;99.90
2497;DHT22;1259;48.306;14.374;2022-11-21T09:34:12;3.80;99.90
2497;DHT22;1259;48.306;14.374;2022-11-21T09:36:39;3.80;99.90
2497;DHT22;1259;48.306;14.374;2022-11-21T09:39:06;3.80;99.90
2497;DHT22;1259;48.306;14.374;2022-11-21T09:41:38;3.60;99.90
2497;DHT22;1259;48.306;14.374;2022-11-21T09:44:30;3.70;99.90
2497;DHT22;1259;48.306;14.374;2022-11-21T09:47:07;3.70;99.90
2497;DHT22;1259;48.306;14.374;2022-11-21T09:49:41;3.70;99.90
2497;DHT22;1259;48.306;14.374;2022-11-21T09:52:10;3.80;99.90
2497;DHT22;1259;48.306;14.374;2022-11-21T09:54:45;3.80;99.90
2497;DHT22;1259;48.306;14.374;2022-11-21T09:57:16;3.90;99.90
2497;DHT22;1259;48.306;14.374;2022-11-21T09:59:44;4.00;99.90
2497;DHT22;1259;48.306;14.374;2022-11-21T10:02:15;4.00;99.90
2497;DHT22;1259;48.306;14.374;2022-11-21T10:04:43;4.10;99.90
2497;DHT22;1259;48.306;14.374;2022-11-21T10:07:15;4.10;99.90
2497;DHT22;1259;48.306;14.374;2022-11-21T10:10:08;4.10;99.90
2497;DHT22;1259;48.306;14.374;2022-11-21T10:12:42;4.10;99.90
2497;DHT22;1259;48.306;14.374;2022-11-21T10:15:31;4.10;99.90
2497;DHT22;1259;48.306;14.374;2022-11-21T10:21:17;4.20;99.90
2497;DHT22;1259;48.306;14.374;2022-11-21T10:24:08;4.30;99.90
2497;DHT22;1259;48.306;14.374;2022-11-21T10:26:43;4.30;99.90
2497;DHT22;1259;48.306;14.374;2022-11-21T10:29:16;4.40;99.90
2497;DHT22;1259;48.306;14.374;2022-11-21T10:31:46;4.50;99.90
2497;DHT22;1259;48.306;14.374;2022-11-21T10:34:19;4.60;99.90
2497;DHT22;1259;48.306;14.374;2022-11-21T10:36:49;4.60;99.90
2497;DHT22;1259;48.306;14.374;2022-11-21T10:39:19;4.70;99.90
2497;DHT22;1259;48.306;14.374;2022-11-21T10:41:52;4.70;99.90
2497;DHT22;1259;48.306;14.374;2022-11-21T10:44:25;4.80;99.90
2497;DHT22;1259;48.306;14.374;2022-11-21T10:47:15;5.00;99.90
2497;DHT22;1259;48.306;14.374;2022-11-21T10:49:56;5.10;99.90
2497;DHT22;1259;48.306;14.374;2022-11-21T10:52:25;5.10;99.90
2497;DHT22;1259;48.306;14.374;2022-11-21T10:55:09;5.10;99.90
2497;DHT22;1259;48.306;14.374;2022-11-21T10:57:40;5.20;99.90
2497;DHT22;1259;48.306;14.374;2022-11-21T11:00:20;5.10;99.90
2497;DHT22;1259;48.306;14.374;2022-11-21T11:03:05;5.20;99.90
2497;DHT22;1259;48.306;14.374;2022-11-21T11:05:35;5.20;99.90
2497;DHT22;1259;48.306;14.374;2022-11-21T11:08:05;5.30;99.90
2497;DHT22;1259;48.306;14.374;2022-11-21T11:10:34;5.40;99.90
2497;DHT22;1259;48.306;14.374;2022-11-21T11:13:01;5.40;99.90
2497;DHT22;1259;48.306;14.374;2022-11-21T11:15:54;5.30;99.90
2497;DHT22;1259;48.306;14.374;2022-11-21T11:18:24;5.30;99.90
2497;DHT22;1259;48.306;14.374;2022-11-21T11:20:52;5.30;99.90
2497;DHT22;1259;48.306;14.374;2022-11-21T11:23:34;5.20;99.90
2497;DHT22;1259;48.306;14.374;2022-11-21T11:26:01;5.30;99.90
2497;DHT22;1259;48.306;14.374;2022-11-21T11:28:34;5.40;99.90
2497;DHT22;1259;48.306;14.374;2022-11-21T11:31:02;5.20;99.90
2497;DHT22;1259;48.306;14.374;2022-11-21T11:33:30;5.10;99.90
2497;DHT22;1259;48.306;14.374;2022-11-21T11:36:10;5.10;99.90
2497;DHT22;1259;48.306;14.374;2022-11-21T11:38:39;4.90;99.90
2497;DHT22;1259;48.306;14.374;2022-11-21T11:41:15;4.80;99.90
2497;DHT22;1259;48.306;14.374;2022-11-21T11:43:50;4.70;99.90
2497;DHT22;1259;48.306;14.374;2022-11-21T11:46:44;4.70;99.90
2497;DHT22;1259;48.306;14.374;2022-11-21T11:49:34;4.60;99.90
2497;DHT22;1259;48.306;14.374;2022-11-21T11:52:28;4.50;99.90
2497;DHT22;1259;48.306;14.374;2022-11-21T11:54:59;4.50;99.90
2497;DHT22;1259;48.306;14.374;2022-11-21T11:57:30;4.50;99.90
2497;DHT22;1259;48.306;14.374;2022-11-21T12:00:04;4.40;99.90
2497;DHT22;1259;48.306;14.374;2022-11-21T12:02:42;4.30;99.90
2497;DHT22;1259;48.306;14.374;2022-11-21T12:05:18;4.30;99.90
2497;DHT22;1259;48.306;14.374;2022-11-21T12:07:54;4.30;99.90
2497;DHT22;1259;48.306;14.374;2022-11-21T12:10:32;4.30;99.90
2497;DHT22;1259;48.306;14.374;2022-11-21T12:13:04;4.30;99.90
2497;DHT22;1259;48.306;14.374;2022-11-21T12:15:37;4.40;99.90
2497;DHT22;1259;48.306;14.374;2022-11-21T12:18:22;4.50;99.90
2497;DHT22;1259;48.306;14.374;2022-11-21T12:20:56;4.50;99.90
2497;DHT22;1259;48.306;14.374;2022-11-21T12:23:29;4.30;99.90
2497;DHT22;1259;48.306;14.374;2022-11-21T12:26:17;4.40;99.90
2497;DHT22;1259;48.306;14.374;2022-11-21T12:28:54;4.20;99.90
2497;DHT22;1259;48.306;14.374;2022-11-21T12:31:28;4.10;99.90
2497;DHT22;1259;48.306;14.374;2022-11-21T12:34:08;4.10;99.90
2497;DHT22;1259;48.306;14.374;2022-11-21T12:36:41;4.10;99.90
2497;DHT22;1259;48.306;14.374;2022-11-21T12:39:33;4.00;99.90
2497;DHT22;1259;48.306;14.374;2022-11-21T12:42:06;4.10;99.90
2497;DHT22;1259;48.306;14.374;2022-11-21T12:45:04;4.20;99.90
2497;DHT22;1259;48.306;14.374;2022-11-21T12:47:51;4.20;99.90
2497;DHT22;1259;48.306;14.374;2022-11-21T12:50:45;4.30;99.90
2497;DHT22;1259;48.306;14.374;2022-11-21T12:53:38;4.30;99.90
2497;DHT22;1259;48.306;14.374;2022-11-21T12:56:34;4.40;99.90
2497;DHT22;1259;48.306;14.374;2022-11-21T12:59:07;4.50;99.90
2497;DHT22;1259;48.306;14.374;2022-11-21T13:01:42;4.70;99.90
2497;DHT22;1259;48.306;14.374;2022-11-21T13:04:15;4.80;99.90
2497;DHT22;1259;48.306;14.374;2022-11-21T13:06:43;4.90;99.90
2497;DHT22;1259;48.306;14.374;2022-11-21T13:09:15;4.90;99.90
2497;DHT22;1259;48.306;14.374;2022-11-21T13:11:49;5.00;99.90
2497;DHT22;1259;48.306;14.374;2022-11-21T13:14:36;5.10;99.90
2497;DHT22;1259;48.306;14.374;2022-11-21T13:17:14;5.10;99.90
2497;DHT22;1259;48.306;14.374;2022-11-21T13:19:49;5.10;99.90
2497;DHT22;1259;48.306;14.374;2022-11-21T13:22:52;5.30;99.90
2497;DHT22;1259;48.306;14.374;2022-11-21T13:25:39;5.40;99.90
2497;DHT22;1259;48.306;14.374;2022-11-21T13:31:30;5.60;99.90
2497;DHT22;1259;48.306;14.374;2022-11-21T13:33:57;5.60;99.90
2497;DHT22;1259;48.306;14.374;2022-11-21T13:36:40;5.50;99.90
2497;DHT22;1259;48.306;14.374;2022-11-21T13:39:35;5.40;99.90
2497;DHT22;1259;48.306;14.374;2022-11-21T13:42:10;5.40;99.90
2497;DHT22;1259;48.306;14.374;2022-11-21T13:44:55;5.50;99.90
2497;DHT22;1259;48.306;14.374;2022-11-21T13:47:49;5.50;99.90
2497;DHT22;1259;48.306;14.374;2022-11-21T13:53:15;5.40;99.90
2497;DHT22;1259;48.306;14.374;2022-11-21T13:55:51;5.40;99.90
2497;DHT22;1259;48.306;14.374;2022-11-21T13:58:32;5.30;99.90
2497;DHT22;1259;48.306;14.374;2022-11-21T14:01:20;5.30;99.90
2497;DHT22;1259;48.306;14.374;2022-11-21T14:06:44;5.20;99.90
2497;DHT22;1259;48.306;14.374;2022-11-21T14:09:30;5.30;99.90
2497;DHT22;1259;48.306;14.374;2022-11-21T14:12:02;5.30;99.90
2497;DHT22;1259;48.306;14.374;2022-11-21T14:14:35;5.30;99.90
2497;DHT22;1259;48.306;14.374;2022-11-21T14:17:26;5.30;99.90
2497;DHT22;1259;48.306;14.374;2022-11-21T14:20:07;5.30;99.90
2497;DHT22;1259;48.306;14.374;2022-11-21T14:22:39;5.30;99.90
2497;DHT22;1259;48.306;14.374;2022-11-21T14:25:08;5.20;99.90
2497;DHT22;1259;48.306;14.374;2022-11-21T14:27:40;5.20;99.90
2497;DHT22;1259;48.306;14.374;2022-11-21T14:30:28;5.20;99.90
2497;DHT22;1259;48.306;14.374;2022-11-21T14:32:55;5.10;99.90
2497;DHT22;1259;48.306;14.374;2022-11-21T14:35:23;5.00;99.90
2497;DHT22;1259;48.306;14.374;2022-11-21T14:37:50;5.10;99.90
2497;DHT22;1259;48.306;14.374;2022-11-21T14:40:20;5.00;99.90
2497;DHT22;1259;48.306;14.374;2022-11-21T14:42:47;5.00;99.90
2497;DHT22;1259;48.306;14.374;2022-11-21T14:45:17;5.00;99.90
2497;DHT22;1259;48.306;14.374;2022-11-21T14:47:46;5.00;99.90
2497;DHT22;1259;48.306;14.374;2022-11-21T14:50:26;4.90;99.90
2497;DHT22;1259;48.306;14.374;2022-11-21T14:52:54;4.90;99.90
2497;DHT22;1259;48.306;14.374;2022-11-21T14:55:26;5.00;99.90
2497;DHT22;1259;48.306;14.374;2022-11-21T14:57:55;4.90;99.90
2497;DHT22;1259;48.306;14.374;2022-11-21T15:00:25;4.90;99.90
2497;DHT22;1259;48.306;14.374;2022-11-21T15:02:53;4.80;99.90
2497;DHT22;1259;48.306;14.374;2022-11-21T15:05:21;4.80;99.90
2497;DHT22;1259;48.306;14.374;2022-11-21T15:07:55;4.70;99.90
2497;DHT22;1259;48.306;14.374;2022-11-21T15:10:28;4.60;99.90
2497;DHT22;1259;48.306;14.374;2022-11-21T15:12:58;4.60;99.90
2497;DHT22;1259;48.306;14.374;2022-11-21T15:15:29;4.50;99.90
2497;DHT22;1259;48.306;14.374;2022-11-21T15:17:58;4.50;99.90
2497;DHT22;1259;48.306;14.374;2022-11-21T15:20:26;4.50;99.90
2497;DHT22;1259;48.306;14.374;2022-11-21T15:22:57;4.40;99.90
2497;DHT22;1259;48.306;14.374;2022-11-21T15:25:26;4.40;99.90
2497;DHT22;1259;48.306;14.374;2022-11-21T15:28:07;4.40;99.90
2497;DHT22;1259;48.306;14.374;2022-11-21T15:30:35;4.40;99.90
2497;DHT22;1259;48.306;14.374;2022-11-21T15:33:07;4.40;99.90
2497;DHT22;1259;48.306;14.374;2022-11-21T15:35:48;4.30;99.90
2497;DHT22;1259;48.306;14.374;2022-11-21T15:38:23;4.30;99.90
2497;DHT22;1259;48.306;14.374;2022-11-21T15:43:44;4.30;99.90
2497;DHT22;1259;48.306;14.374;2022-11-21T15:46:16;4.30;99.90
2497;DHT22;1259;48.306;14.374;2022-11-21T15:48:45;4.30;99.90
2497;DHT22;1259;48.306;14.374;2022-11-21T15:51:12;4.30;99.90
2497;DHT22;1259;48.306;14.374;2022-11-21T15:53:40;4.30;99.90
2497;DHT22;1259;48.306;14.374;2022-11-21T15:56:09;4.30;99.90
2497;DHT22;1259;48.306;14.374;2022-11-21T15:58:37;4.30;99.90
2497;DHT22;1259;48.306;14.374;2022-11-21T16:01:04;4.30;99.90
2497;DHT22;1259;48.306;14.374;2022-11-21T16:03:31;4.30;99.90
2497;DHT22;1259;48.306;14.374;2022-11-21T16:05:58;4.30;99.90
2497;DHT22;1259;48.306;14.374;2022-11-21T16:08:25;4.30;99.90
2497;DHT22;1259;48.306;14.374;2022-11-21T16:10:53;4.40;99.90
2497;DHT22;1259;48.306;14.374;2022-11-21T16:13:20;4.40;99.90
2497;DHT22;1259;48.306;14.374;2022-11-21T16:15:47;4.30;99.90
2497;DHT22;1259;48.306;14.374;2022-11-21T16:18:14;4.30;99.90
2497;DHT22;1259;48.306;14.374;2022-11-21T16:20:40;4.20;99.90
2497;DHT22;1259;48.306;14.374;2022-11-21T16:23:08;4.20;99.90
2497;DHT22;1259;48.306;14.374;2022-11-21T16:25:36;4.10;99.90
2497;DHT22;1259;48.306;14.374;2022-11-21T16:28:04;4.00;99.90
2497;DHT22;1259;48.306;14.374;2022-11-21T16:30:31;4.00;99.90
2497;DHT22;1259;48.306;14.374;2022-11-21T16:33:00;4.00;99.90
2497;DHT22;1259;48.306;14.374;2022-11-21T16:35:27;3.90;99.90
2497;DHT22;1259;48.306;14.374;2022-11-21T16:37:54;3.90;99.90
2497;DHT22;1259;48.306;14.374;2022-11-21T16:40:21;3.80;99.90